sensor_id;sensor_type;location;lat;lon;timestamp;pressure;altitude;pressure_sealevel;temperature;humidity
818;BME280;391;51.052;6.954;2023-04-21T00:00:00;100735.06;;;11.10;78.57
818;BME280;391;51.052;6.954;2023-04-21T00:02:10;100731.44;;;11.05;79.31
818;BME280;391;51.052;6.954;2023-04-21T00:04:17;100720.19;;;11.07;79.28
818;BME280;391;51.052;6.954;2023-04-21T00:06:21;100663.06;;;10.84;79.45
818;BME280;391;51.052;6.954;2023-04-21T00:08:24;100703.63;;;11.05;79.28
818;BME280;391;51.052;6.954;2023-04-21T00:10:28;100698.56;;;11.11;79.09
818;BME280;391;51.052;6.954;2023-04-21T00:12:32;100700.28;;;11.11;78.92
818;BME280;391;51.052;6.954;2023-04-21T00:14:35;100683.66;;;11.06;79.14
818;BME280;391;51.052;6.954;2023-04-21T00:16:40;100698.72;;;11.16;79.38
818;BME280;391;51.052;6.954;2023-04-21T00:18:46;100699.59;;;11.17;79.62
818;BME280;391;51.052;6.954;2023-04-21T00:20:49;100708.34;;;11.20;79.66
818;BME280;391;51.052;6.954;2023-04-21T00:22:53;100701.50;;;11.24;79.85
818;BME280;391;51.052;6.954;2023-04-21T00:24:57;100701.56;;;11.27;79.63
818;BME280;391;51.052;6.954;2023-04-21T00:27:00;100691.19;;;11.28;79.87
818;BME280;391;51.052;6.954;2023-04-21T00:29:04;100689.47;;;11.30;79.53
818;BME280;391;51.052;6.954;2023-04-21T00:31:08;100679.03;;;11.30;78.99
818;BME280;391;51.052;6.954;2023-04-21T00:33:12;100685.06;;;11.28;79.27
818;BME280;391;51.052;6.954;2023-04-21T00:35:16;100675.44;;;11.25;79.12
818;BME280;391;51.052;6.954;2023-04-21T00:37:20;100681.69;;;11.32;79.36
818;BME280;391;51.052;6.954;2023-04-21T00:39:23;100675.63;;;11.33;79.20
818;BME280;391;51.052;6.954;2023-04-21T00:41:27;100687.00;;;11.36;79.14
818;BME280;391;51.052;6.954;2023-04-21T00:43:31;100683.63;;;11.39;79.32
818;BME280;391;51.052;6.954;2023-04-21T00:45:34;100660.00;;;11.34;78.95
818;BME280;391;51.052;6.954;2023-04-21T00:47:38;100675.53;;;11.28;78.97
818;BME280;391;51.052;6.954;2023-04-21T00:49:41;100676.47;;;11.32;79.07
818;BME280;391;51.052;6.954;2023-04-21T00:51:46;100675.63;;;11.33;78.90
818;BME280;391;51.052;6.954;2023-04-21T00:53:50;100685.19;;;11.32;79.16
818;BME280;391;51.052;6.954;2023-04-21T00:55:53;100676.44;;;11.30;78.83
818;BME280;391;51.052;6.954;2023-04-21T00:57:57;100675.44;;;11.25;79.22
818;BME280;391;51.052;6.954;2023-04-21T01:00:03;100634.56;;;10.91;78.81
818;BME280;391;51.052;6.954;2023-04-21T01:02:11;100662.13;;;11.14;78.81
818;BME280;391;51.052;6.954;2023-04-21T01:04:14;100662.94;;;11.12;78.82
818;BME280;391;51.052;6.954;2023-04-21T01:06:18;100662.88;;;11.10;78.94
818;BME280;391;51.052;6.954;2023-04-21T01:08:23;100656.66;;;11.04;78.92
818;BME280;391;51.052;6.954;2023-04-21T01:10:26;100657.19;;;10.92;79.12
818;BME280;391;51.052;6.954;2023-04-21T01:12:30;100590.09;;;10.52;79.09
818;BME280;391;51.052;6.954;2023-04-21T01:14:34;100660.69;;;10.93;79.36
818;BME280;391;51.052;6.954;2023-04-21T01:16:38;100541.31;;;10.16;79.50
818;BME280;391;51.052;6.954;2023-04-21T01:18:41;100656.13;;;10.84;79.79
818;BME280;391;51.052;6.954;2023-04-21T01:20:45;100661.28;;;10.83;80.28
818;BME280;391;51.052;6.954;2023-04-21T01:22:52;100644.91;;;10.88;80.14
818;BME280;391;51.052;6.954;2023-04-21T01:24:55;100649.44;;;10.95;80.26
818;BME280;391;51.052;6.954;2023-04-21T01:26:59;100641.63;;;10.95;80.32
818;BME280;391;51.052;6.954;2023-04-21T01:29:02;100652.28;;;11.03;80.09
818;BME280;391;51.052;6.954;2023-04-21T01:31:06;100653.31;;;11.11;80.33
818;BME280;391;51.052;6.954;2023-04-21T01:33:11;100648.25;;;11.15;79.98
818;BME280;391;51.052;6.954;2023-04-21T01:35:15;100655.25;;;11.18;79.92
818;BME280;391;51.052;6.954;2023-04-21T01:37:20;100629.78;;;11.08;80.12
818;BME280;391;51.052;6.954;2023-04-21T01:39:27;100654.50;;;11.22;80.12
818;BME280;391;51.052;6.954;2023-04-21T01:41:30;100654.44;;;11.21;79.95
818;BME280;391;51.052;6.954;2023-04-21T01:43:34;100651.66;;;11.13;79.80
818;BME280;391;51.052;6.954;2023-04-21T01:45:38;100662.94;;;11.12;79.86
818;BME280;391;51.052;6.954;2023-04-21T01:47:42;100658.53;;;11.11;80.25
818;BME280;391;51.052;6.954;2023-04-21T01:49:47;100655.91;;;11.09;80.27
818;BME280;391;51.052;6.954;2023-04-21T01:51:51;100657.72;;;11.12;80.22
818;BME280;391;51.052;6.954;2023-04-21T01:53:54;100658.53;;;11.11;80.17
818;BME280;391;51.052;6.954;2023-04-21T01:55:59;100658.69;;;11.17;80.58
818;BME280;391;51.052;6.954;2023-04-21T01:58:05;100668.38;;;11.21;80.63
818;BME280;391;51.052;6.954;2023-04-21T02:00:09;100665.81;;;11.23;80.39
818;BME280;391;51.052;6.954;2023-04-21T02:02:16;100663.28;;;11.26;80.61
818;BME280;391;51.052;6.954;2023-04-21T02:04:19;100666.72;;;11.25;80.46
818;BME280;391;51.052;6.954;2023-04-21T02:06:23;100553.75;;;10.58;80.48
818;BME280;391;51.052;6.954;2023-04-21T02:08:27;100667.63;;;11.25;80.46
818;BME280;391;51.052;6.954;2023-04-21T02:10:30;100668.56;;;11.29;80.41
818;BME280;391;51.052;6.954;2023-04-21T02:12:35;100669.50;;;11.31;80.02
818;BME280;391;51.052;6.954;2023-04-21T02:14:38;100669.47;;;11.29;80.43
818;BME280;391;51.052;6.954;2023-04-21T02:16:42;100663.09;;;11.18;80.12
818;BME280;391;51.052;6.954;2023-04-21T02:18:45;100663.09;;;11.18;80.62
818;BME280;391;51.052;6.954;2023-04-21T02:20:49;100658.78;;;11.20;80.73
818;BME280;391;51.052;6.954;2023-04-21T02:22:52;100656.22;;;11.23;80.30
818;BME280;391;51.052;6.954;2023-04-21T02:24:56;100646.66;;;11.22;80.23
818;BME280;391;51.052;6.954;2023-04-21T02:26:59;100653.81;;;11.31;80.49
818;BME280;391;51.052;6.954;2023-04-21T02:29:05;100658.22;;;11.33;80.68
818;BME280;391;51.052;6.954;2023-04-21T02:31:12;100651.28;;;11.32;80.17
818;BME280;391;51.052;6.954;2023-04-21T02:33:15;100660.69;;;11.26;80.34
818;BME280;391;51.052;6.954;2023-04-21T02:35:19;100652.50;;;11.12;80.54
818;BME280;391;51.052;6.954;2023-04-21T02:37:23;100655.78;;;11.05;80.12
818;BME280;391;51.052;6.954;2023-04-21T02:39:27;100655.75;;;11.03;80.33
818;BME280;391;51.052;6.954;2023-04-21T02:41:31;100652.72;;;10.87;80.31
818;BME280;391;51.052;6.954;2023-04-21T02:43:35;100650.56;;;10.72;80.98
818;BME280;391;51.052;6.954;2023-04-21T02:45:40;100638.47;;;10.74;81.15
818;BME280;391;51.052;6.954;2023-04-21T02:47:43;100650.53;;;10.71;80.96
818;BME280;391;51.052;6.954;2023-04-21T02:49:47;100628.34;;;10.53;81.29
818;BME280;391;51.052;6.954;2023-04-21T02:51:50;100649.66;;;10.70;81.13
818;BME280;391;51.052;6.954;2023-04-21T02:53:54;100654.16;;;10.76;81.38
818;BME280;391;51.052;6.954;2023-04-21T02:55:58;100659.41;;;10.77;81.26
818;BME280;391;51.052;6.954;2023-04-21T02:58:04;100529.72;;;10.06;81.39
818;BME280;391;51.052;6.954;2023-04-21T03:00:09;100656.91;;;10.82;81.56
818;BME280;391;51.052;6.954;2023-04-21T03:02:14;100657.03;;;10.85;81.58
818;BME280;391;51.052;6.954;2023-04-21T03:04:18;100658.75;;;10.84;81.58
818;BME280;391;51.052;6.954;2023-04-21T03:06:21;100562.56;;;10.31;81.44
818;BME280;391;51.052;6.954;2023-04-21T03:08:25;100672.66;;;10.85;81.96
818;BME280;391;51.052;6.954;2023-04-21T03:10:28;100667.25;;;10.77;81.32
818;BME280;391;51.052;6.954;2023-04-21T03:12:32;100674.91;;;10.73;81.90
818;BME280;391;51.052;6.954;2023-04-21T03:14:35;100677.44;;;10.70;82.34
818;BME280;391;51.052;6.954;2023-04-21T03:16:39;100670.34;;;10.64;82.06
818;BME280;391;51.052;6.954;2023-04-21T03:18:44;100665.97;;;10.63;82.10
818;BME280;391;51.052;6.954;2023-04-21T03:20:47;100665.22;;;10.67;82.18
818;BME280;391;51.052;6.954;2023-04-21T03:22:52;100667.91;;;10.70;82.16
818;BME280;391;51.052;6.954;2023-04-21T03:24:55;100668.00;;;10.73;81.98
818;BME280;391;51.052;6.954;2023-04-21T03:26:59;100666.22;;;10.72;81.71
818;BME280;391;51.052;6.954;2023-04-21T03:29:02;100674.16;;;10.75;82.07
818;BME280;391;51.052;6.954;2023-04-21T03:31:06;100674.16;;;10.77;82.23
818;BME280;391;51.052;6.954;2023-04-21T03:33:10;100668.72;;;10.68;81.69
818;BME280;391;51.052;6.954;2023-04-21T03:35:14;100626.16;;;10.37;82.36
818;BME280;391;51.052;6.954;2023-04-21T03:37:18;100673.03;;;10.66;81.81
818;BME280;391;51.052;6.954;2023-04-21T03:39:23;100650.81;;;10.48;82.20
818;BME280;391;51.052;6.954;2023-04-21T03:41:27;100679.59;;;10.53;82.31
818;BME280;391;51.052;6.954;2023-04-21T03:43:31;100686.88;;;10.33;82.13
818;BME280;391;51.052;6.954;2023-04-21T03:45:34;100666.69;;;10.26;82.52
818;BME280;391;51.052;6.954;2023-04-21T03:47:38;100676.94;;;10.22;82.64
818;BME280;391;51.052;6.954;2023-04-21T03:49:41;100667.47;;;9.95;82.78
818;BME280;391;51.052;6.954;2023-04-21T03:51:46;100670.94;;;9.96;82.99
818;BME280;391;51.052;6.954;2023-04-21T03:53:49;100669.47;;;10.04;83.51
818;BME280;391;51.052;6.954;2023-04-21T03:55:53;100663.63;;;10.13;83.21
818;BME280;391;51.052;6.954;2023-04-21T03:57:56;100672.34;;;10.13;83.32
818;BME280;391;51.052;6.954;2023-04-21T04:00:02;100621.47;;;9.96;82.74
818;BME280;391;51.052;6.954;2023-04-21T04:02:13;100663.03;;;10.21;82.92
818;BME280;391;51.052;6.954;2023-04-21T04:04:17;100667.56;;;10.27;83.09
818;BME280;391;51.052;6.954;2023-04-21T04:06:20;100667.75;;;10.33;82.85
818;BME280;391;51.052;6.954;2023-04-21T04:08:25;100655.59;;;10.33;83.12
818;BME280;391;51.052;6.954;2023-04-21T04:10:29;100658.28;;;10.36;82.81
818;BME280;391;51.052;6.954;2023-04-21T04:12:32;100667.25;;;10.16;83.27
818;BME280;391;51.052;6.954;2023-04-21T04:14:35;100665.16;;;10.04;83.41
818;BME280;391;51.052;6.954;2023-04-21T04:16:39;100657.63;;;10.14;83.89
818;BME280;391;51.052;6.954;2023-04-21T04:18:47;100658.53;;;10.16;83.41
818;BME280;391;51.052;6.954;2023-04-21T04:20:55;100616.25;;;9.96;82.99
818;BME280;391;51.052;6.954;2023-04-21T04:23:00;100663.03;;;10.21;82.84
818;BME280;391;51.052;6.954;2023-04-21T04:25:09;100662.28;;;10.25;83.41
818;BME280;391;51.052;6.954;2023-04-21T04:27:13;100541.34;;;9.57;83.21
818;BME280;391;51.052;6.954;2023-04-21T04:29:17;100655.34;;;10.24;83.39
818;BME280;391;51.052;6.954;2023-04-21T04:31:21;100662.09;;;10.18;82.95
818;BME280;391;51.052;6.954;2023-04-21T04:33:26;100659.31;;;10.13;83.42
818;BME280;391;51.052;6.954;2023-04-21T04:35:30;100674.41;;;10.23;83.07
818;BME280;391;51.052;6.954;2023-04-21T04:37:34;100677.03;;;10.25;82.92
818;BME280;391;51.052;6.954;2023-04-21T04:39:38;100673.47;;;10.21;83.00
818;BME280;391;51.052;6.954;2023-04-21T04:41:43;100670.53;;;10.10;82.73
818;BME280;391;51.052;6.954;2023-04-21T04:43:48;100672.56;;;9.92;83.12
818;BME280;391;51.052;6.954;2023-04-21T04:45:52;100551.16;;;9.10;83.35
818;BME280;391;51.052;6.954;2023-04-21T04:47:55;100668.25;;;9.65;83.62
818;BME280;391;51.052;6.954;2023-04-21T04:49:59;100661.13;;;9.59;83.93
818;BME280;391;51.052;6.954;2023-04-21T04:52:03;100654.41;;;9.66;83.46
818;BME280;391;51.052;6.954;2023-04-21T04:54:06;100649.41;;;9.73;83.91
818;BME280;391;51.052;6.954;2023-04-21T04:56:09;100652.22;;;9.79;83.45
818;BME280;391;51.052;6.954;2023-04-21T04:58:14;100661.28;;;9.92;83.89
818;BME280;391;51.052;6.954;2023-04-21T05:00:18;100666.69;;;9.98;83.48
818;BME280;391;51.052;6.954;2023-04-21T05:02:22;100660.34;;;9.90;83.30
818;BME280;391;51.052;6.954;2023-04-21T05:04:26;100672.44;;;9.88;83.82
818;BME280;391;51.052;6.954;2023-04-21T05:06:30;100673.34;;;9.90;83.42
818;BME280;391;51.052;6.954;2023-04-21T05:08:33;100669.22;;;9.96;83.64
818;BME280;391;51.052;6.954;2023-04-21T05:10:37;100671.97;;;10.01;83.73
818;BME280;391;51.052;6.954;2023-04-21T05:12:40;100675.56;;;10.04;84.03
818;BME280;391;51.052;6.954;2023-04-21T05:14:45;100670.63;;;9.85;84.16
818;BME280;391;51.052;6.954;2023-04-21T05:16:48;100672.56;;;9.92;84.13
818;BME280;391;51.052;6.954;2023-04-21T05:18:52;100676.31;;;10.02;84.10
818;BME280;391;51.052;6.954;2023-04-21T05:20:55;100683.13;;;9.97;83.81
818;BME280;391;51.052;6.954;2023-04-21T05:22:59;100667.25;;;9.89;84.28
818;BME280;391;51.052;6.954;2023-04-21T05:25:03;100668.84;;;9.84;84.46
818;BME280;391;51.052;6.954;2023-04-21T05:27:06;100668.63;;;9.77;84.42
818;BME280;391;51.052;6.954;2023-04-21T05:29:10;100689.69;;;9.84;84.43
818;BME280;391;51.052;6.954;2023-04-21T05:31:14;100687.25;;;9.89;84.18
818;BME280;391;51.052;6.954;2023-04-21T05:33:18;100676.75;;;9.87;84.71
818;BME280;391;51.052;6.954;2023-04-21T05:35:21;100683.78;;;9.90;84.46
818;BME280;391;51.052;6.954;2023-04-21T05:37:24;100688.25;;;9.94;84.19
818;BME280;391;51.052;6.954;2023-04-21T05:39:28;100684.06;;;9.99;84.65
818;BME280;391;51.052;6.954;2023-04-21T05:41:31;100694.81;;;10.09;84.04
818;BME280;391;51.052;6.954;2023-04-21T05:43:35;100692.28;;;10.13;84.54
818;BME280;391;51.052;6.954;2023-04-21T05:45:38;100640.28;;;9.86;84.32
818;BME280;391;51.052;6.954;2023-04-21T05:47:44;100684.44;;;10.11;84.28
818;BME280;391;51.052;6.954;2023-04-21T05:49:50;100692.56;;;10.20;83.87
818;BME280;391;51.052;6.954;2023-04-21T05:51:54;100693.47;;;10.22;83.94
818;BME280;391;51.052;6.954;2023-04-21T05:53:58;100689.78;;;10.14;84.24
818;BME280;391;51.052;6.954;2023-04-21T05:56:01;100690.47;;;10.10;84.33
818;BME280;391;51.052;6.954;2023-04-21T05:58:04;100693.91;;;10.09;84.32
818;BME280;391;51.052;6.954;2023-04-21T06:00:09;100679.16;;;10.08;84.39
818;BME280;391;51.052;6.954;2023-04-21T06:02:13;100692.50;;;10.19;84.28
818;BME280;391;51.052;6.954;2023-04-21T06:04:18;100687.06;;;10.13;83.96
818;BME280;391;51.052;6.954;2023-04-21T06:06:22;100691.31;;;10.09;84.04
818;BME280;391;51.052;6.954;2023-04-21T06:08:25;100694.97;;;10.14;84.14
818;BME280;391;51.052;6.954;2023-04-21T06:10:29;100688.69;;;10.07;84.24
818;BME280;391;51.052;6.954;2023-04-21T06:12:32;100687.78;;;10.07;84.38
818;BME280;391;51.052;6.954;2023-04-21T06:14:36;100683.59;;;10.12;84.92
818;BME280;391;51.052;6.954;2023-04-21T06:16:39;100681.84;;;10.11;84.62
818;BME280;391;51.052;6.954;2023-04-21T06:18:42;100671.00;;;9.97;84.99
818;BME280;391;51.052;6.954;2023-04-21T06:20:50;100679.28;;;9.84;85.13
818;BME280;391;51.052;6.954;2023-04-21T06:22:54;100687.25;;;9.89;85.55
818;BME280;391;51.052;6.954;2023-04-21T06:24:57;100668.34;;;9.96;85.37
818;BME280;391;51.052;6.954;2023-04-21T06:27:01;100674.16;;;10.14;85.63
818;BME280;391;51.052;6.954;2023-04-21T06:29:05;100675.28;;;10.24;85.56
818;BME280;391;51.052;6.954;2023-04-21T06:31:08;100683.38;;;10.33;85.34
818;BME280;391;51.052;6.954;2023-04-21T06:33:16;100678.34;;;10.40;85.13
818;BME280;391;51.052;6.954;2023-04-21T06:35:20;100683.41;;;10.34;85.31
818;BME280;391;51.052;6.954;2023-04-21T06:37:24;100689.31;;;10.29;85.56
818;BME280;391;51.052;6.954;2023-04-21T06:39:28;100683.41;;;10.34;85.78
818;BME280;391;51.052;6.954;2023-04-21T06:41:31;100685.41;;;10.43;85.85
818;BME280;391;51.052;6.954;2023-04-21T06:43:35;100648.16;;;10.78;88.25
818;BME280;391;51.052;6.954;2023-04-21T06:45:39;100687.66;;;11.62;88.20
818;BME280;391;51.052;6.954;2023-04-21T06:47:42;100678.34;;;12.10;87.55
818;BME280;391;51.052;6.954;2023-04-21T06:49:46;100678.84;;;12.33;86.83
818;BME280;391;51.052;6.954;2023-04-21T06:51:49;100678.34;;;12.52;86.24
818;BME280;391;51.052;6.954;2023-04-21T06:53:54;100683.81;;;12.64;85.20
818;BME280;391;51.052;6.954;2023-04-21T06:55:57;100681.09;;;12.16;83.77
818;BME280;391;51.052;6.954;2023-04-21T06:58:02;100682.78;;;11.76;84.04
818;BME280;391;51.052;6.954;2023-04-21T07:00:06;100688.25;;;11.50;83.84
818;BME280;391;51.052;6.954;2023-04-21T07:02:10;100689.41;;;11.27;83.78
818;BME280;391;51.052;6.954;2023-04-21T07:04:14;100700.72;;;11.28;83.74
818;BME280;391;51.052;6.954;2023-04-21T07:06:17;100692.97;;;11.29;83.62
818;BME280;391;51.052;6.954;2023-04-21T07:08:20;100689.47;;;11.30;83.40
818;BME280;391;51.052;6.954;2023-04-21T07:10:26;100680.75;;;11.30;83.39
818;BME280;391;51.052;6.954;2023-04-21T07:12:29;100683.38;;;11.30;83.12
818;BME280;391;51.052;6.954;2023-04-21T07:14:32;100684.63;;;11.11;82.24
818;BME280;391;51.052;6.954;2023-04-21T07:16:36;100684.84;;;10.86;81.66
818;BME280;391;51.052;6.954;2023-04-21T07:18:39;100680.06;;;10.70;81.54
818;BME280;391;51.052;6.954;2023-04-21T07:20:43;100679.06;;;10.65;81.75
818;BME280;391;51.052;6.954;2023-04-21T07:22:47;100675.97;;;10.48;82.16
818;BME280;391;51.052;6.954;2023-04-21T07:24:50;100675.84;;;10.43;82.40
818;BME280;391;51.052;6.954;2023-04-21T07:26:55;100638.84;;;10.25;82.14
818;BME280;391;51.052;6.954;2023-04-21T07:28:58;100679.34;;;10.44;82.28
818;BME280;391;51.052;6.954;2023-04-21T07:31:02;100676.78;;;10.45;82.32
818;BME280;391;51.052;6.954;2023-04-21T07:33:05;100684.53;;;10.44;82.67
818;BME280;391;51.052;6.954;2023-04-21T07:35:10;100645.00;;;10.27;82.53
818;BME280;391;51.052;6.954;2023-04-21T07:37:13;100688.09;;;10.46;83.12
818;BME280;391;51.052;6.954;2023-04-21T07:39:17;100676.88;;;10.48;83.29
818;BME280;391;51.052;6.954;2023-04-21T07:41:21;100580.69;;;9.96;83.39
818;BME280;391;51.052;6.954;2023-04-21T07:43:25;100685.59;;;10.50;83.87
818;BME280;391;51.052;6.954;2023-04-21T07:45:31;100676.97;;;10.53;84.33
818;BME280;391;51.052;6.954;2023-04-21T07:47:34;100677.19;;;10.60;83.89
818;BME280;391;51.052;6.954;2023-04-21T07:49:38;100679.13;;;10.68;84.30
818;BME280;391;51.052;6.954;2023-04-21T07:51:41;100676.63;;;10.72;84.11
818;BME280;391;51.052;6.954;2023-04-21T07:53:44;100677.59;;;10.74;83.86
818;BME280;391;51.052;6.954;2023-04-21T07:55:48;100688.13;;;10.79;84.51
818;BME280;391;51.052;6.954;2023-04-21T07:57:51;100687.97;;;10.73;84.16
818;BME280;391;51.052;6.954;2023-04-21T07:59:57;100689.75;;;10.74;84.46
818;BME280;391;51.052;6.954;2023-04-21T08:02:00;100669.78;;;10.76;85.12
818;BME280;391;51.052;6.954;2023-04-21T08:04:04;100690.34;;;10.96;85.34
818;BME280;391;51.052;6.954;2023-04-21T08:06:07;100676.72;;;11.08;85.10
818;BME280;391;51.052;6.954;2023-04-21T08:08:12;100681.34;;;11.18;85.21
818;BME280;391;51.052;6.954;2023-04-21T08:10:21;100681.56;;;11.26;85.05
818;BME280;391;51.052;6.954;2023-04-21T08:12:25;100684.53;;;11.41;84.81
818;BME280;391;51.052;6.954;2023-04-21T08:14:29;100674.16;;;11.44;84.34
818;BME280;391;51.052;6.954;2023-04-21T08:16:34;100679.25;;;11.38;84.41
818;BME280;391;51.052;6.954;2023-04-21T08:18:38;100677.38;;;11.34;84.27
818;BME280;391;51.052;6.954;2023-04-21T08:20:41;100680.00;;;11.34;83.88
818;BME280;391;51.052;6.954;2023-04-21T08:22:45;100669.56;;;11.34;83.64
818;BME280;391;51.052;6.954;2023-04-21T08:24:49;100673.06;;;11.34;84.26
818;BME280;391;51.052;6.954;2023-04-21T08:26:53;100675.75;;;11.37;84.10
818;BME280;391;51.052;6.954;2023-04-21T08:28:56;100674.94;;;11.40;83.53
818;BME280;391;51.052;6.954;2023-04-21T08:31:03;100676.66;;;11.39;83.76
818;BME280;391;51.052;6.954;2023-04-21T08:33:08;100667.88;;;11.36;83.50
818;BME280;391;51.052;6.954;2023-04-21T08:35:15;100665.44;;;11.43;83.51
818;BME280;391;51.052;6.954;2023-04-21T08:37:19;100674.03;;;11.39;83.45
818;BME280;391;51.052;6.954;2023-04-21T08:39:22;100675.66;;;11.34;83.08
818;BME280;391;51.052;6.954;2023-04-21T08:41:26;100675.81;;;11.40;83.60
818;BME280;391;51.052;6.954;2023-04-21T08:43:30;100617.81;;;11.16;83.52
818;BME280;391;51.052;6.954;2023-04-21T08:45:34;100675.34;;;11.56;83.45
818;BME280;391;51.052;6.954;2023-04-21T08:47:39;100670.50;;;11.72;83.51
818;BME280;391;51.052;6.954;2023-04-21T08:49:45;100668.31;;;11.90;83.01
818;BME280;391;51.052;6.954;2023-04-21T08:51:52;100634.94;;;11.77;82.96
818;BME280;391;51.052;6.954;2023-04-21T08:53:56;100671.13;;;11.99;83.04
818;BME280;391;51.052;6.954;2023-04-21T08:55:59;100659.69;;;11.94;82.72
818;BME280;391;51.052;6.954;2023-04-21T08:58:12;100663.22;;;11.96;82.45
818;BME280;391;51.052;6.954;2023-04-21T09:00:16;100658.88;;;11.96;82.55
818;BME280;391;51.052;6.954;2023-04-21T09:02:20;100666.09;;;12.08;82.94
818;BME280;391;51.052;6.954;2023-04-21T09:04:28;100667.34;;;12.25;82.80
818;BME280;391;51.052;6.954;2023-04-21T09:06:40;100671.69;;;12.25;82.80
818;BME280;391;51.052;6.954;2023-04-21T09:08:52;100667.34;;;12.25;82.33
818;BME280;391;51.052;6.954;2023-04-21T09:10:57;100674.19;;;12.20;81.89
818;BME280;391;51.052;6.954;2023-04-21T09:13:06;100673.88;;;12.05;82.53
818;BME280;391;51.052;6.954;2023-04-21T09:15:10;100672.84;;;11.98;82.71
818;BME280;391;51.052;6.954;2023-04-21T09:17:15;100666.69;;;11.95;82.99
818;BME280;391;51.052;6.954;2023-04-21T09:19:19;100670.25;;;11.98;82.96
818;BME280;391;51.052;6.954;2023-04-21T09:21:26;100668.53;;;11.99;83.58
818;BME280;391;51.052;6.954;2023-04-21T09:23:45;100670.25;;;11.98;83.56
818;BME280;391;51.052;6.954;2023-04-21T09:25:49;100661.69;;;12.05;83.77
818;BME280;391;51.052;6.954;2023-04-21T09:27:53;100669.09;;;12.26;83.80
818;BME280;391;51.052;6.954;2023-04-21T09:30:01;100667.72;;;12.45;83.71
818;BME280;391;51.052;6.954;2023-04-21T09:32:10;100664.38;;;12.50;83.29
818;BME280;391;51.052;6.954;2023-04-21T09:34:18;100661.66;;;12.46;82.79
818;BME280;391;51.052;6.954;2023-04-21T09:36:23;100667.00;;;12.52;82.65
818;BME280;391;51.052;6.954;2023-04-21T09:38:27;100660.81;;;12.47;82.44
818;BME280;391;51.052;6.954;2023-04-21T09:40:32;100661.75;;;12.50;82.72
818;BME280;391;51.052;6.954;2023-04-21T09:42:36;100656.00;;;12.68;83.35
818;BME280;391;51.052;6.954;2023-04-21T09:44:42;100658.03;;;12.83;83.01
818;BME280;391;51.052;6.954;2023-04-21T09:47:09;100635.44;;;12.88;82.99
818;BME280;391;51.052;6.954;2023-04-21T09:49:15;100642.66;;;13.01;82.81
818;BME280;391;51.052;6.954;2023-04-21T09:51:19;100461.22;;;12.00;82.08
818;BME280;391;51.052;6.954;2023-04-21T09:53:45;100641.94;;;13.09;82.26
818;BME280;391;51.052;6.954;2023-04-21T09:55:53;100635.03;;;13.13;81.95
818;BME280;391;51.052;6.954;2023-04-21T09:57:58;100635.19;;;13.22;81.86
818;BME280;391;51.052;6.954;2023-04-21T10:00:05;100637.88;;;13.28;81.65
818;BME280;391;51.052;6.954;2023-04-21T10:02:10;100612.41;;;13.16;81.20
818;BME280;391;51.052;6.954;2023-04-21T10:04:15;100625.69;;;13.27;81.05
818;BME280;391;51.052;6.954;2023-04-21T10:06:22;100627.69;;;13.43;81.15
818;BME280;391;51.052;6.954;2023-04-21T10:08:25;100631.31;;;13.53;80.27
818;BME280;391;51.052;6.954;2023-04-21T10:10:30;100628.06;;;13.70;80.28
818;BME280;391;51.052;6.954;2023-04-21T10:12:37;100622.50;;;14.11;80.22
818;BME280;391;51.052;6.954;2023-04-21T10:14:41;100626.25;;;14.31;78.83
818;BME280;391;51.052;6.954;2023-04-21T10:16:55;100623.94;;;14.55;77.89
818;BME280;391;51.052;6.954;2023-04-21T10:18:58;100534.47;;;14.31;77.52
818;BME280;391;51.052;6.954;2023-04-21T10:21:03;100624.28;;;14.89;75.18
818;BME280;391;51.052;6.954;2023-04-21T10:23:07;100626.03;;;14.87;74.27
818;BME280;391;51.052;6.954;2023-04-21T10:25:10;100625.91;;;14.77;72.71
818;BME280;391;51.052;6.954;2023-04-21T10:27:30;100619.72;;;14.69;72.86
818;BME280;391;51.052;6.954;2023-04-21T10:29:35;100610.03;;;14.65;72.82
818;BME280;391;51.052;6.954;2023-04-21T10:31:56;100606.41;;;14.53;73.03
818;BME280;391;51.052;6.954;2023-04-21T10:34:20;100615.16;;;14.53;72.97
818;BME280;391;51.052;6.954;2023-04-21T10:36:24;100600.50;;;14.72;73.27
818;BME280;391;51.052;6.954;2023-04-21T10:38:34;100604.06;;;14.77;71.66
818;BME280;391;51.052;6.954;2023-04-21T10:40:37;100603.06;;;14.66;71.59
818;BME280;391;51.052;6.954;2023-04-21T10:42:45;100596.97;;;14.71;71.80
818;BME280;391;51.052;6.954;2023-04-21T10:45:00;100589.31;;;14.90;71.94
818;BME280;391;51.052;6.954;2023-04-21T10:47:06;100584.31;;;15.21;71.99
818;BME280;391;51.052;6.954;2023-04-21T10:49:11;100534.28;;;15.09;69.72
818;BME280;391;51.052;6.954;2023-04-21T10:51:23;100573.94;;;15.43;69.35
818;BME280;391;51.052;6.954;2023-04-21T10:53:27;100571.56;;;15.80;69.70
818;BME280;391;51.052;6.954;2023-04-21T10:55:30;100564.69;;;16.16;68.86
818;BME280;391;51.052;6.954;2023-04-21T10:57:34;100567.41;;;16.41;67.91
818;BME280;391;51.052;6.954;2023-04-21T10:59:39;100562.13;;;16.40;65.86
818;BME280;391;51.052;6.954;2023-04-21T11:01:44;100566.50;;;16.38;65.29
818;BME280;391;51.052;6.954;2023-04-21T11:03:48;100556.03;;;16.46;65.43
818;BME280;391;51.052;6.954;2023-04-21T11:05:51;100569.16;;;16.30;64.94
818;BME280;391;51.052;6.954;2023-04-21T11:08:04;100554.13;;;16.01;65.13
818;BME280;391;51.052;6.954;2023-04-21T11:10:09;100540.03;;;15.82;64.88
818;BME280;391;51.052;6.954;2023-04-21T11:12:14;100540.84;;;15.70;65.00
818;BME280;391;51.052;6.954;2023-04-21T11:14:19;100523.28;;;15.62;65.42
818;BME280;391;51.052;6.954;2023-04-21T11:16:22;100537.47;;;16.03;65.31
818;BME280;391;51.052;6.954;2023-04-21T11:18:36;100504.22;;;16.28;64.06
818;BME280;391;51.052;6.954;2023-04-21T11:20:39;100512.19;;;16.64;62.41
818;BME280;391;51.052;6.954;2023-04-21T11:22:51;100525.34;;;17.11;62.97
818;BME280;391;51.052;6.954;2023-04-21T11:24:57;100514.78;;;17.38;61.28
818;BME280;391;51.052;6.954;2023-04-21T11:27:01;100537.59;;;17.44;58.81
818;BME280;391;51.052;6.954;2023-04-21T11:29:08;100510.44;;;17.16;58.48